createdAt,value
2023-12-20T00:01:52.629Z,50
2023-12-20T00:03:52.109Z,47
2023-12-20T00:05:51.670Z,54.4
2023-12-20T00:07:51.654Z,51.9
2023-12-20T00:09:50.958Z,49.3
2023-12-20T00:11:50.523Z,41.4
2023-12-20T00:13:51.948Z,47.3
2023-12-20T00:15:49.772Z,51.7
2023-12-20T00:17:49.708Z,58.1
2023-12-20T00:19:49.077Z,44.3
2023-12-20T00:21:48.652Z,39
2023-12-20T00:23:48.245Z,45.4
2023-12-20T00:25:47.842Z,41.2
2023-12-20T00:27:47.847Z,50.8
2023-12-20T00:29:47.029Z,47.6
2023-12-20T00:31:46.719Z,42
2023-12-20T00:33:46.490Z,47.4
2023-12-20T00:35:45.882Z,44
2023-12-20T00:37:45.748Z,45.3
2023-12-20T00:39:45.145Z,48.2
2023-12-20T00:41:44.707Z,39.2
2023-12-20T00:43:44.375Z,41.5
2023-12-20T00:45:44.024Z,37.8
2023-12-20T00:47:44.178Z,44.1
2023-12-20T00:49:43.225Z,46.2
2023-12-20T00:51:42.800Z,43.7
2023-12-20T00:53:42.399Z,43.4
2023-12-20T00:55:41.994Z,51.1
2023-12-20T00:57:41.633Z,35.8
2023-12-20T00:59:41.227Z,46.5
2023-12-20T01:01:40.858Z,38.8
2023-12-20T01:03:40.600Z,44.5
2023-12-20T01:05:40.174Z,47.1
2023-12-20T01:07:39.687Z,41.2
2023-12-20T01:09:39.360Z,29.5
2023-12-20T01:11:39.000Z,34.5
2023-12-20T01:13:38.622Z,36.9
2023-12-20T01:15:38.306Z,39
2023-12-20T01:17:37.884Z,39.3
2023-12-20T01:19:37.791Z,39.5
2023-12-20T01:21:37.107Z,42.9
2023-12-20T01:23:36.761Z,38.3
2023-12-20T01:25:36.365Z,43.3
2023-12-20T01:27:35.989Z,40.5
2023-12-20T01:29:35.570Z,38.1
2023-12-20T01:31:35.234Z,37.3
2023-12-20T01:33:34.960Z,39
2023-12-20T01:35:34.485Z,43.7
2023-12-20T01:37:34.094Z,37.8
2023-12-20T01:39:33.793Z,41.8
2023-12-20T01:41:33.494Z,41.2
2023-12-20T01:43:41.040Z,38.3
2023-12-20T01:45:32.592Z,36.5
2023-12-20T01:47:32.262Z,41.7
2023-12-20T01:49:31.917Z,40.7
2023-12-20T01:51:31.563Z,39.5
2023-12-20T01:53:31.130Z,45
2023-12-20T01:55:30.767Z,42
2023-12-20T01:57:30.402Z,41.2
2023-12-20T01:59:30.044Z,42.1
2023-12-20T02:01:29.855Z,43.7
2023-12-20T02:03:29.327Z,39.7
2023-12-20T02:05:29.051Z,43.5
2023-12-20T02:07:28.620Z,44.2
2023-12-20T02:09:28.164Z,39.4
2023-12-20T02:11:27.837Z,44.7
2023-12-20T02:13:27.522Z,40.6
2023-12-20T02:15:27.126Z,45.3
2023-12-20T02:17:26.755Z,39.7
2023-12-20T02:19:26.446Z,41.2
2023-12-20T02:21:26.008Z,37.8
2023-12-20T02:23:25.625Z,41
2023-12-20T02:25:25.345Z,43.1
2023-12-20T02:27:24.949Z,39
2023-12-20T02:29:24.530Z,35.3
2023-12-20T02:31:24.190Z,33.7
2023-12-20T02:33:23.815Z,37.4
2023-12-20T02:35:23.509Z,41.5
2023-12-20T02:37:23.095Z,36.2
2023-12-20T02:39:22.660Z,40.2
2023-12-20T02:41:22.304Z,39.9
2023-12-20T02:43:21.995Z,39.6
2023-12-20T02:45:21.557Z,36.4
2023-12-20T02:47:21.226Z,40.7
2023-12-20T02:49:20.882Z,37.9
2023-12-20T02:51:20.478Z,36.5
2023-12-20T02:53:20.043Z,42.1
2023-12-20T02:55:19.772Z,40.6
2023-12-20T02:57:19.393Z,40.7
2023-12-20T02:59:18.997Z,34.8
2023-12-20T03:01:18.888Z,36.1
2023-12-20T03:03:18.222Z,36.1
2023-12-20T03:05:18.065Z,39.6
2023-12-20T03:07:17.641Z,32.3
2023-12-20T03:09:17.195Z,41.4
2023-12-20T03:11:16.853Z,35.9
2023-12-20T03:13:16.490Z,33.2
2023-12-20T03:15:16.034Z,31
2023-12-20T03:17:15.683Z,39.7
2023-12-20T03:19:15.360Z,39
2023-12-20T03:21:14.925Z,32.8
2023-12-20T03:23:14.554Z,40.9
2023-12-20T03:25:14.255Z,40.4
2023-12-20T03:27:13.805Z,37.3
2023-12-20T03:29:13.507Z,33.2
2023-12-20T03:31:13.156Z,34.6
2023-12-20T03:33:12.761Z,37.1
2023-12-20T03:35:12.323Z,33.3
2023-12-20T03:37:11.937Z,37.5
2023-12-20T03:39:11.469Z,38.2
2023-12-20T03:41:11.147Z,32.3
2023-12-20T03:43:10.862Z,36
2023-12-20T03:45:10.426Z,38.4
2023-12-20T03:47:09.977Z,41.6
2023-12-20T03:49:09.669Z,36.9
2023-12-20T03:51:09.210Z,25.8
2023-12-20T03:53:08.789Z,31.3
2023-12-20T03:55:08.475Z,30
2023-12-20T03:57:08.024Z,35.5
2023-12-20T03:59:07.701Z,36.2
2023-12-20T04:00:46.538Z,36.2
2023-12-20T04:01:26.431Z,39.9
2023-12-20T04:02:06.310Z,39.9
2023-12-20T04:03:06.915Z,32.1
2023-12-20T04:05:06.546Z,35
2023-12-20T04:07:06.252Z,33.9
2023-12-20T04:09:05.706Z,38.2
2023-12-20T04:11:05.343Z,39
2023-12-20T04:13:04.988Z,41.3
2023-12-20T04:15:04.570Z,27.9
2023-12-20T04:17:04.145Z,39.7
2023-12-20T04:19:04.031Z,33.6
2023-12-20T04:21:03.407Z,41.7
2023-12-20T04:23:02.978Z,35.6
2023-12-20T04:25:02.603Z,32.2
2023-12-20T04:27:02.168Z,211.4
2023-12-20T04:29:01.895Z,124.8
2023-12-20T04:31:01.550Z,197.5
2023-12-20T04:33:01.181Z,63.7
2023-12-20T04:35:00.714Z,297.8
2023-12-20T04:37:00.294Z,71.5
2023-12-20T04:38:59.874Z,38.1
2023-12-20T04:40:59.509Z,30.9
2023-12-20T04:42:59.207Z,26.8
2023-12-20T04:44:58.726Z,41.2
2023-12-20T04:46:58.403Z,40.1
2023-12-20T04:48:58.073Z,34.2
2023-12-20T04:50:57.630Z,53.4
2023-12-20T04:52:57.216Z,31.9
2023-12-20T04:54:56.847Z,49.8
2023-12-20T04:56:56.404Z,30
2023-12-20T04:58:56.043Z,34.8
2023-12-20T05:00:55.727Z,33.1
2023-12-20T05:02:55.241Z,53.8
2023-12-20T05:04:56.214Z,101.5
2023-12-20T05:06:54.556Z,71.3
2023-12-20T05:08:54.054Z,52.5
2023-12-20T05:10:53.661Z,103.4
2023-12-20T05:12:53.322Z,77
2023-12-20T05:14:52.870Z,140.7
2023-12-20T05:16:52.409Z,172
2023-12-20T05:18:52.078Z,40.9
2023-12-20T05:20:51.623Z,32.7
2023-12-20T05:22:51.295Z,57.5
2023-12-20T05:24:50.842Z,132.6
2023-12-20T05:26:53.660Z,61.6
2023-12-20T05:28:50.135Z,85.9
2023-12-20T05:30:49.795Z,78.9
2023-12-20T05:32:49.322Z,40.1
2023-12-20T05:34:48.950Z,33.2
2023-12-20T05:36:48.500Z,119.2
2023-12-20T05:38:48.098Z,67.6
2023-12-20T05:40:47.680Z,45.9
2023-12-20T05:42:47.250Z,36.1
2023-12-20T05:44:46.837Z,46.8
2023-12-20T05:46:46.506Z,89.4
2023-12-20T05:48:46.219Z,48.3
2023-12-20T05:50:45.647Z,39.4
2023-12-20T05:52:45.249Z,89.3
2023-12-20T05:54:44.876Z,75.3
2023-12-20T05:56:44.456Z,68
2023-12-20T05:58:44.080Z,76.9
2023-12-20T06:00:43.759Z,81.3
2023-12-20T06:02:43.290Z,150.8
2023-12-20T06:04:42.916Z,122.3
2023-12-20T06:06:42.530Z,36.3
2023-12-20T06:08:42.068Z,30.4
2023-12-20T06:10:41.763Z,38.5
2023-12-20T06:12:41.360Z,74.8
2023-12-20T06:14:40.903Z,92.6
2023-12-20T06:16:40.493Z,67.1
2023-12-20T06:18:40.164Z,31.8
2023-12-20T06:20:39.720Z,31.2
2023-12-20T06:22:39.304Z,34.2
2023-12-20T06:24:38.931Z,32.8
2023-12-20T06:26:38.580Z,37.1
2023-12-20T06:28:41.316Z,33
2023-12-20T06:30:37.794Z,36.7
2023-12-20T06:32:37.370Z,51.4
2023-12-20T06:34:37.016Z,69.4
2023-12-20T06:36:36.556Z,96
2023-12-20T06:38:36.111Z,63.6
2023-12-20T06:40:35.780Z,50.1
2023-12-20T06:42:43.082Z,42.4
2023-12-20T06:44:34.948Z,45
2023-12-20T06:46:34.493Z,31.7
2023-12-20T06:48:34.208Z,43.5
2023-12-20T06:50:33.673Z,27.8
2023-12-20T06:52:33.274Z,32.8
2023-12-20T06:54:32.864Z,35.3
2023-12-20T06:56:32.459Z,45.4
2023-12-20T06:58:32.126Z,38.3
2023-12-20T07:00:31.738Z,46.3
2023-12-20T07:02:31.336Z,49
2023-12-20T07:04:31.013Z,38
2023-12-20T07:06:30.489Z,39.1
2023-12-20T07:08:30.021Z,32.1
2023-12-20T07:10:29.712Z,37.8
2023-12-20T07:12:29.269Z,44
2023-12-20T07:14:28.870Z,30.8
2023-12-20T07:16:28.515Z,37.2
2023-12-20T07:18:28.059Z,26.5
2023-12-20T07:20:27.722Z,33.1
2023-12-20T07:22:27.325Z,28.7
2023-12-20T07:24:26.849Z,30.4
2023-12-20T07:26:26.471Z,23.5
2023-12-20T07:28:26.133Z,30.5
2023-12-20T07:30:25.665Z,24.8
2023-12-20T07:32:25.263Z,31.9
2023-12-20T07:34:24.961Z,27.7
2023-12-20T07:36:24.403Z,22.4
2023-12-20T07:38:23.996Z,23.4
2023-12-20T07:40:23.692Z,23.3
2023-12-20T07:42:23.222Z,31.2
2023-12-20T07:44:22.798Z,24.6
2023-12-20T07:46:22.467Z,24.5
2023-12-20T07:48:22.004Z,26.7
2023-12-20T07:50:21.712Z,14.2
2023-12-20T07:52:21.279Z,18.3
2023-12-20T07:54:20.798Z,27.2
2023-12-20T07:56:20.420Z,18.1
2023-12-20T07:58:20.003Z,24.7
2023-12-20T08:00:19.652Z,19.6
2023-12-20T08:02:19.204Z,24.8
2023-12-20T08:04:18.793Z,21.9
2023-12-20T08:06:18.680Z,27.2
2023-12-20T08:08:17.966Z,28.7
2023-12-20T08:10:17.677Z,35.9
2023-12-20T08:12:17.263Z,20.9
2023-12-20T08:14:16.854Z,52.8
2023-12-20T08:16:16.458Z,23.6
2023-12-20T08:18:16.063Z,49.8
2023-12-20T08:20:22.973Z,25.4
2023-12-20T08:22:15.288Z,27.1
2023-12-20T08:24:14.876Z,24
2023-12-20T08:26:14.448Z,25.7
2023-12-20T08:28:14.090Z,27.5
2023-12-20T08:30:13.766Z,31.7
2023-12-20T08:32:13.295Z,25
2023-12-20T08:34:13.015Z,26.3
2023-12-20T08:36:12.509Z,29
2023-12-20T08:38:12.101Z,30.3
2023-12-20T08:40:11.774Z,31.7
2023-12-20T08:42:11.344Z,41.7
2023-12-20T08:44:10.919Z,30.2
2023-12-20T08:46:10.696Z,48.6
2023-12-20T08:48:10.639Z,51.1
2023-12-20T08:50:10.045Z,22.1
2023-12-20T08:52:09.579Z,32.1
2023-12-20T08:54:09.088Z,53
2023-12-20T08:56:08.721Z,38.6
2023-12-20T08:58:08.366Z,31.3
2023-12-20T09:00:08.992Z,26.4
2023-12-20T09:02:07.501Z,27.4
2023-12-20T09:04:07.221Z,26.6
2023-12-20T09:06:06.823Z,48.4
2023-12-20T09:08:06.401Z,40.8
2023-12-20T09:10:06.083Z,35.8
2023-12-20T09:12:05.654Z,26.8
2023-12-20T09:14:05.269Z,27.9
2023-12-20T09:16:04.927Z,26
2023-12-20T09:18:04.641Z,45.3
2023-12-20T09:20:04.212Z,44.8
2023-12-20T09:22:03.749Z,79.7
2023-12-20T09:24:04.410Z,22.2
2023-12-20T09:26:02.992Z,30.4
2023-12-20T09:28:02.675Z,28
2023-12-20T09:30:02.214Z,24.4
2023-12-20T09:32:02.035Z,25.1
2023-12-20T09:34:01.582Z,32.2
2023-12-20T09:36:01.230Z,30.4
2023-12-20T09:38:00.720Z,38
2023-12-20T09:40:00.597Z,28.5
2023-12-20T09:41:59.987Z,30.6
2023-12-20T09:43:59.608Z,32.7
2023-12-20T09:45:59.196Z,34.5
2023-12-20T09:47:58.938Z,19.8
2023-12-20T09:49:58.581Z,31.6
2023-12-20T09:51:58.112Z,23.9
2023-12-20T09:53:57.712Z,24
2023-12-20T09:55:57.375Z,14.6
2023-12-20T09:57:57.109Z,31.5
2023-12-20T09:59:56.578Z,24.2
2023-12-20T10:01:57.978Z,25.9
2023-12-20T10:03:56.046Z,30.4
2023-12-20T10:05:55.668Z,25.5
2023-12-20T10:07:55.190Z,28.2
2023-12-20T10:09:54.801Z,33
2023-12-20T10:11:54.512Z,20.4
2023-12-20T10:13:54.028Z,30.9
2023-12-20T10:15:53.690Z,23.1
2023-12-20T10:17:54.374Z,16.4
2023-12-20T10:19:52.992Z,26.1
2023-12-20T10:21:52.596Z,24.8
2023-12-20T10:23:52.247Z,25.3
2023-12-20T10:25:51.836Z,24.5
2023-12-20T10:27:51.727Z,27.2
2023-12-20T10:29:51.080Z,37.4
2023-12-20T10:31:50.831Z,19.3
2023-12-20T10:33:50.471Z,26.5
2023-12-20T10:35:50.067Z,35.7
2023-12-20T10:37:49.770Z,22.6
2023-12-20T10:39:49.403Z,29.6
2023-12-20T10:41:48.982Z,21.9
2023-12-20T10:43:48.625Z,21.4
2023-12-20T10:45:48.299Z,22.7
2023-12-20T10:47:48.414Z,15.9
2023-12-20T10:49:47.644Z,30.5
2023-12-20T10:51:47.167Z,28.6
2023-12-20T10:53:47.905Z,35.9
2023-12-20T10:55:46.430Z,32.5
2023-12-20T10:57:46.365Z,16.9
2023-12-20T10:59:46.956Z,24.7
2023-12-20T11:01:45.395Z,28.2
2023-12-20T11:03:44.984Z,31.8
2023-12-20T11:05:44.579Z,23.2
2023-12-20T11:07:44.632Z,41.8
2023-12-20T11:09:43.933Z,35.3
2023-12-20T11:11:43.468Z,31.8
2023-12-20T11:13:43.120Z,42.8
2023-12-20T11:15:42.692Z,30.3
2023-12-20T11:17:42.413Z,28.1
2023-12-20T11:19:42.065Z,27.7
2023-12-20T11:21:41.596Z,34.2
2023-12-20T11:23:41.209Z,37
2023-12-20T11:25:40.927Z,37.6
2023-12-20T11:27:40.505Z,74.4
2023-12-20T11:29:40.177Z,51.4
2023-12-20T11:31:39.770Z,37.3
2023-12-20T11:33:39.409Z,52.2
2023-12-20T11:35:39.126Z,38.9
2023-12-20T11:37:38.806Z,39
2023-12-20T11:39:38.295Z,34.8
2023-12-20T11:41:37.952Z,42
2023-12-20T11:43:37.671Z,49.8
2023-12-20T11:45:37.156Z,38.4
2023-12-20T11:47:36.862Z,42.1
2023-12-20T11:49:36.519Z,43.9
2023-12-20T11:51:36.047Z,42.5
2023-12-20T11:53:35.677Z,38.2
2023-12-20T11:55:35.543Z,52.4
2023-12-20T11:57:34.976Z,45.8
2023-12-20T11:59:34.581Z,44.6
2023-12-20T12:01:34.226Z,39.6
2023-12-20T12:03:33.876Z,35.9
2023-12-20T12:05:33.716Z,37.9
2023-12-20T12:07:33.197Z,27.4
2023-12-20T12:09:32.787Z,35.9
2023-12-20T12:11:32.422Z,31.3
2023-12-20T12:13:32.276Z,27.5
2023-12-20T12:15:31.734Z,27.4
2023-12-20T12:17:32.186Z,36.8
2023-12-20T12:19:31.046Z,32.2
2023-12-20T12:21:33.363Z,32.9
2023-12-20T12:23:30.251Z,28.9
2023-12-20T12:25:30.033Z,27.2
2023-12-20T12:27:29.550Z,28.3
2023-12-20T12:29:29.247Z,29.5
2023-12-20T12:31:29.236Z,22
2023-12-20T12:33:28.683Z,22.8
2023-12-20T12:35:28.295Z,35.4
2023-12-20T12:37:28.074Z,24.4
2023-12-20T12:39:27.542Z,29.8
2023-12-20T12:41:27.186Z,21.5
2023-12-20T12:43:26.893Z,25.7
2023-12-20T12:45:26.500Z,26.9
2023-12-20T12:47:26.246Z,25
2023-12-20T12:49:26.014Z,32.8
2023-12-20T12:51:25.445Z,28.8
2023-12-20T12:53:25.139Z,26.3
2023-12-20T12:55:24.832Z,36.4
2023-12-20T12:57:24.444Z,27.2
2023-12-20T12:59:24.080Z,20.6
2023-12-20T13:01:23.816Z,27.4
2023-12-20T13:03:23.387Z,30.4
2023-12-20T13:05:23.201Z,30.2
2023-12-20T13:07:22.805Z,31
2023-12-20T13:09:22.417Z,30.8
2023-12-20T13:11:22.112Z,23.5
2023-12-20T13:13:21.690Z,32.3
2023-12-20T13:15:21.410Z,19.6
2023-12-20T13:17:21.033Z,18
2023-12-20T13:19:20.843Z,16.2
2023-12-20T13:21:20.403Z,19.1
2023-12-20T13:23:20.031Z,18.8
2023-12-20T13:25:19.742Z,22.2
2023-12-20T13:27:19.349Z,34.8
2023-12-20T13:29:18.998Z,22.8
2023-12-20T13:31:18.748Z,22.7
2023-12-20T13:33:18.397Z,18.2
2023-12-20T13:35:18.121Z,26.4
2023-12-20T13:37:17.755Z,23.4
2023-12-20T13:39:17.372Z,27
2023-12-20T13:41:17.058Z,34
2023-12-20T13:43:16.690Z,34.4
2023-12-20T13:45:16.389Z,25.3
2023-12-20T13:47:16.024Z,25
2023-12-20T13:49:15.757Z,24.8
2023-12-20T13:51:15.379Z,20.9
2023-12-20T13:53:15.001Z,21.5
2023-12-20T13:55:14.918Z,21
2023-12-20T13:57:22.133Z,20
2023-12-20T13:59:13.996Z,21.1
2023-12-20T14:01:13.819Z,25
2023-12-20T14:03:13.361Z,18.7
2023-12-20T14:05:13.179Z,24.6
2023-12-20T14:07:13.631Z,28.4
2023-12-20T14:09:12.357Z,22.5
2023-12-20T14:11:12.087Z,20.2
2023-12-20T14:13:11.689Z,22.5
2023-12-20T14:15:11.510Z,22.7
2023-12-20T14:17:11.066Z,26.4
2023-12-20T14:19:10.793Z,21.1
2023-12-20T14:21:10.375Z,19
2023-12-20T14:23:10.080Z,22.1
2023-12-20T14:25:09.863Z,20
2023-12-20T14:27:09.388Z,19.5
2023-12-20T14:29:09.160Z,18.4
2023-12-20T14:31:08.898Z,18.9
2023-12-20T14:33:08.508Z,16.3
2023-12-20T14:35:08.344Z,22.2
2023-12-20T14:37:07.858Z,22
2023-12-20T14:39:07.478Z,18
2023-12-20T14:41:07.137Z,46.7
2023-12-20T14:43:06.846Z,27.2
2023-12-20T14:45:06.546Z,31.2
2023-12-20T14:47:06.170Z,14.6
2023-12-20T14:49:05.861Z,30.4
2023-12-20T14:51:05.541Z,24.8
2023-12-20T14:53:05.255Z,26
2023-12-20T14:55:04.983Z,19.4
2023-12-20T14:57:05.709Z,26.6
2023-12-20T14:59:04.182Z,27.3
2023-12-20T15:01:03.955Z,27
2023-12-20T15:03:03.545Z,24.9
2023-12-20T15:05:03.242Z,24.5
2023-12-20T15:07:03.014Z,23.8
2023-12-20T15:09:02.546Z,18.3
2023-12-20T15:11:02.218Z,26.8
2023-12-20T15:13:01.976Z,24.8
2023-12-20T15:15:01.625Z,20.9
2023-12-20T15:17:01.268Z,30.8
2023-12-20T15:19:01.160Z,29
2023-12-20T15:21:00.660Z,27.6
2023-12-20T15:23:00.267Z,19.8
2023-12-20T15:25:00.046Z,22.5
2023-12-20T15:26:59.698Z,30
2023-12-20T15:28:59.360Z,26
2023-12-20T15:30:59.164Z,25.4
2023-12-20T15:32:58.675Z,38.9
2023-12-20T15:34:58.468Z,29
2023-12-20T15:36:58.167Z,26.3
2023-12-20T15:38:57.722Z,26.9
2023-12-20T15:40:57.459Z,19.1
2023-12-20T15:42:57.421Z,24.4
2023-12-20T15:44:56.747Z,20.6
2023-12-20T15:46:56.464Z,23.2
2023-12-20T15:48:56.282Z,18.6
2023-12-20T15:50:55.858Z,19.5
2023-12-20T15:52:55.438Z,30.7
2023-12-20T15:54:55.284Z,32.4
2023-12-20T15:56:54.847Z,22.4
2023-12-20T15:58:54.545Z,27.7
2023-12-20T16:00:54.215Z,31.3
2023-12-20T16:02:53.850Z,32.6
2023-12-20T16:04:53.584Z,33.1
2023-12-20T16:06:53.194Z,34.9
2023-12-20T16:08:52.887Z,26.2
2023-12-20T16:10:52.605Z,30.4
2023-12-20T16:12:52.374Z,33.3
2023-12-20T16:14:51.868Z,30.4
2023-12-20T16:16:51.539Z,27.3
2023-12-20T16:18:51.259Z,32.8
2023-12-20T16:20:50.925Z,31.9
2023-12-20T16:22:50.625Z,30.6
2023-12-20T16:24:50.279Z,26.6
2023-12-20T16:26:49.940Z,28.9
2023-12-20T16:28:49.674Z,32
2023-12-20T16:30:49.621Z,24.4
2023-12-20T16:32:48.998Z,30.9
2023-12-20T16:34:48.922Z,29.5
2023-12-20T16:36:48.317Z,27.7
2023-12-20T16:38:48.031Z,28.3
2023-12-20T16:40:47.737Z,27.8
2023-12-20T16:42:47.434Z,26.2
2023-12-20T16:44:47.013Z,26.1
2023-12-20T16:46:46.698Z,32.7
2023-12-20T16:48:46.676Z,44.4
2023-12-20T16:50:46.034Z,30.4
2023-12-20T16:52:45.721Z,24.9
2023-12-20T16:54:45.423Z,22.7
2023-12-20T16:56:45.064Z,20.4
2023-12-20T16:58:44.846Z,17.6
2023-12-20T17:00:44.469Z,16.3
2023-12-20T17:02:44.074Z,20.5
2023-12-20T17:04:43.910Z,14.5
2023-12-20T17:06:43.379Z,16
2023-12-20T17:08:43.079Z,12.4
2023-12-20T17:10:42.781Z,12.2
2023-12-20T17:12:42.386Z,14.3
2023-12-20T17:14:42.070Z,15.8
2023-12-20T17:16:41.724Z,16.4
2023-12-20T17:18:41.392Z,15.6
2023-12-20T17:20:41.217Z,15.1
2023-12-20T17:22:40.911Z,14.4
2023-12-20T17:24:40.497Z,15.6
2023-12-20T17:26:40.128Z,14
2023-12-20T17:28:39.821Z,12.2
2023-12-20T17:30:39.552Z,11.9
2023-12-20T17:32:39.182Z,12.4
2023-12-20T17:34:38.865Z,14.9
2023-12-20T17:36:38.486Z,13.9
2023-12-20T17:38:38.235Z,15.4
2023-12-20T17:40:37.904Z,16.4
2023-12-20T17:48:36.674Z,17.2
2023-12-20T17:50:36.293Z,19.8
2023-12-20T17:52:36.058Z,29.6
2023-12-20T17:54:35.635Z,44
2023-12-20T17:56:35.327Z,48.9
2023-12-20T17:58:35.023Z,69.3
2023-12-20T18:00:34.709Z,79.8
2023-12-20T18:02:34.443Z,57.9
2023-12-20T18:04:34.095Z,55.3
2023-12-20T18:06:33.827Z,52.2
2023-12-20T18:08:33.436Z,49.6
2023-12-20T18:10:34.730Z,32.9
2023-12-20T18:12:32.760Z,45.9
2023-12-20T18:14:32.486Z,37
2023-12-20T18:16:34.787Z,40.2
2023-12-20T18:18:31.889Z,30.7
2023-12-20T18:20:31.704Z,29.1
2023-12-20T18:22:31.209Z,29.5
2023-12-20T18:24:30.817Z,29.9
2023-12-20T18:26:30.520Z,28.5
2023-12-20T18:28:30.229Z,30.5
2023-12-20T18:30:29.937Z,28
2023-12-20T18:32:29.599Z,26.9
2023-12-20T18:34:29.237Z,28.4
2023-12-20T18:36:28.919Z,27
2023-12-20T18:38:28.548Z,25.9
2023-12-20T18:40:28.306Z,27.7
2023-12-20T18:42:27.979Z,26.4
2023-12-20T18:44:27.647Z,27.3
2023-12-20T18:46:27.303Z,31.4
2023-12-20T18:48:27.061Z,31
2023-12-20T18:50:26.772Z,35
2023-12-20T18:52:26.420Z,33.4
2023-12-20T18:54:25.992Z,34.9
2023-12-20T18:56:25.685Z,34.5
2023-12-20T18:58:25.404Z,30.1
2023-12-20T19:00:25.101Z,37.7
2023-12-20T19:02:24.752Z,31.6
2023-12-20T19:04:24.480Z,28.7
2023-12-20T19:06:24.065Z,28.9
2023-12-20T19:08:23.709Z,28.6
2023-12-20T19:10:25.900Z,28.8
2023-12-20T19:12:23.134Z,26.2
2023-12-20T19:14:22.817Z,22.1
2023-12-20T19:16:22.470Z,22.5
2023-12-20T19:18:22.087Z,24.1
2023-12-20T19:20:21.914Z,27.4
2023-12-20T19:22:21.556Z,31.4
2023-12-20T19:24:21.130Z,26.4
2023-12-20T19:26:20.793Z,33.4
2023-12-20T19:28:20.546Z,35.7
2023-12-20T19:30:20.136Z,30.7
2023-12-20T19:32:19.881Z,28.7
2023-12-20T19:34:19.616Z,37.7
2023-12-20T19:36:19.154Z,35.4
2023-12-20T19:38:18.821Z,40.6
2023-12-20T19:40:18.593Z,58.7
2023-12-20T19:42:18.170Z,70.4
2023-12-20T19:44:17.825Z,66
2023-12-20T19:46:17.632Z,71
2023-12-20T19:48:17.199Z,69.3
2023-12-20T19:50:17.227Z,69.8
2023-12-20T19:52:16.575Z,71.6
2023-12-20T19:54:16.159Z,104.8
2023-12-20T19:56:15.850Z,122.6
2023-12-20T19:58:15.497Z,104.1
2023-12-20T20:00:15.168Z,93.2
2023-12-20T20:02:14.895Z,103.9
2023-12-20T20:04:18.139Z,87.2
2023-12-20T20:06:14.136Z,112.1
2023-12-20T20:08:13.786Z,105.2
2023-12-20T20:10:13.443Z,77.3
2023-12-20T20:12:13.097Z,83.2
2023-12-20T20:14:12.804Z,75.1
2023-12-20T20:16:12.439Z,104.9
2023-12-20T20:18:12.212Z,90.7
2023-12-20T20:20:11.745Z,114.5
2023-12-20T20:22:11.456Z,131.3
2023-12-20T20:24:11.069Z,151.7
2023-12-20T20:26:10.769Z,142.1
2023-12-20T20:28:10.460Z,135.4
2023-12-20T20:30:10.081Z,121
2023-12-20T20:32:09.700Z,109.6
2023-12-20T20:34:09.442Z,68.5
2023-12-20T20:36:09.119Z,65
2023-12-20T20:38:08.672Z,63.2
2023-12-20T20:40:08.457Z,73.2
2023-12-20T20:42:07.991Z,79.9
2023-12-20T20:44:07.703Z,78.2
2023-12-20T20:46:07.309Z,82.1
2023-12-20T20:48:16.412Z,100.5
2023-12-20T20:50:06.738Z,86.8
2023-12-20T20:52:06.367Z,66.7
2023-12-20T20:54:15.699Z,90.9
2023-12-20T20:56:05.644Z,70.4
2023-12-20T20:58:05.355Z,66.5
2023-12-20T21:00:04.941Z,61.6
2023-12-20T21:02:04.791Z,57.1
2023-12-20T21:04:04.369Z,58
2023-12-20T21:06:04.162Z,71.9
2023-12-20T21:08:03.593Z,81
2023-12-20T21:10:03.304Z,68.7
2023-12-20T21:12:02.982Z,66.5
2023-12-20T21:14:02.591Z,70.6
2023-12-20T21:16:02.363Z,82
2023-12-20T21:18:01.967Z,107.7
2023-12-20T21:20:01.678Z,80.2
2023-12-20T21:22:01.371Z,75.1
2023-12-20T21:24:00.938Z,63.6
2023-12-20T21:26:00.585Z,62.2
2023-12-20T21:28:00.298Z,66.8
2023-12-20T21:29:59.924Z,78.1
2023-12-20T21:31:59.535Z,73.6
2023-12-20T21:33:59.314Z,92
2023-12-20T21:35:58.860Z,132.4
2023-12-20T21:37:58.564Z,117
2023-12-20T21:39:58.366Z,99.7
2023-12-20T21:41:57.868Z,68
2023-12-20T21:43:57.562Z,81.1
2023-12-20T21:45:57.303Z,64.6
2023-12-20T21:47:56.951Z,75
2023-12-20T21:49:56.629Z,75.7
2023-12-20T21:51:56.203Z,79
2023-12-20T21:53:55.874Z,76.2
2023-12-20T21:55:55.487Z,72.3
2023-12-20T21:57:55.188Z,56.4
2023-12-20T21:59:54.829Z,55.8
2023-12-20T22:01:54.514Z,52
2023-12-20T22:03:54.253Z,59.3
2023-12-20T22:05:53.866Z,53
2023-12-20T22:07:53.441Z,59.8
2023-12-20T22:09:53.198Z,84.1
2023-12-20T22:11:52.738Z,72.5
2023-12-20T22:13:52.430Z,48
2023-12-20T22:15:52.151Z,48.8
2023-12-20T22:17:52.055Z,58.4
2023-12-20T22:19:51.523Z,74.7
2023-12-20T22:21:51.059Z,73.7
2023-12-20T22:23:50.701Z,66.6
2023-12-20T22:25:50.504Z,58.2
2023-12-20T22:27:50.609Z,62.5
2023-12-20T22:29:49.706Z,74
2023-12-20T22:31:49.439Z,47.5
2023-12-20T22:33:49.108Z,48.5
2023-12-20T22:35:48.706Z,49.1
2023-12-20T22:37:48.562Z,46.2
2023-12-20T22:39:48.040Z,41.7
2023-12-20T22:41:47.620Z,43.6
2023-12-20T22:43:47.312Z,46
2023-12-20T22:45:46.986Z,46.7
2023-12-20T22:47:47.028Z,44
2023-12-20T22:49:46.403Z,52
2023-12-20T22:51:45.930Z,46.6
2023-12-20T22:53:45.603Z,41.6
2023-12-20T22:55:45.286Z,47.7
2023-12-20T22:57:45.222Z,51.6
2023-12-20T22:59:44.570Z,55.4
2023-12-20T23:01:44.448Z,52.4
2023-12-20T23:03:43.925Z,53.4
2023-12-20T23:05:43.587Z,48.1
2023-12-20T23:07:43.272Z,48.4
2023-12-20T23:09:42.932Z,57.3
2023-12-20T23:11:42.547Z,52.6
2023-12-20T23:13:42.253Z,57.7
2023-12-20T23:15:41.821Z,61.6
2023-12-20T23:17:41.508Z,59.6
2023-12-20T23:19:41.256Z,63.2
2023-12-20T23:21:40.811Z,70.9
2023-12-20T23:23:40.463Z,70.7
2023-12-20T23:25:40.184Z,66.1
2023-12-20T23:27:42.568Z,71.5
2023-12-20T23:29:39.461Z,67
2023-12-20T23:31:39.145Z,57.6
2023-12-20T23:33:38.888Z,55.9
2023-12-20T23:35:38.386Z,57.5
2023-12-20T23:37:38.098Z,60.3
2023-12-20T23:39:37.687Z,54.4
2023-12-20T23:41:37.362Z,59.1
2023-12-20T23:43:37.126Z,52.9
2023-12-20T23:45:36.676Z,50.8
2023-12-20T23:47:36.321Z,45.2
2023-12-20T23:49:36.053Z,48.8
2023-12-20T23:51:35.633Z,43.5
2023-12-20T23:53:35.323Z,36.2
2023-12-20T23:55:35.006Z,36.5
2023-12-20T23:57:34.614Z,47.6
2023-12-20T23:59:34.295Z,41
